Time;durP1;ratioP1;P1;durP2;ratioP2;P2;SDS_P1;SDS_P2;PMS_P1;PMS_P2;Temp;Humidity;BMP_temperature;BMP_pressure;BME280_temperature;BME280_humidity;BME280_pressure;Samples;Min_cycle;Max_cycle;Signal;HPM_P1;HPM_P2
2022/03/24 00:01:58;;;;;;;5.03;4.63;;;;;;;;;;5069213;28;20028;-56
2022/03/24 00:04:24;;;;;;;5.95;5.40;;;;;;;;;;5065387;28;20098;-55
2022/03/24 00:06:49;;;;;;;8.00;5.18;;;;;;;;;;5068198;28;20040;-56
2022/03/24 00:09:14;;;;;;;5.55;4.95;;;;;;;;;;5072108;28;20394;-57
2022/03/24 00:11:40;;;;;;;6.40;5.90;;;;;;;;;;5070989;28;20075;-56
2022/03/24 00:14:06;;;;;;;9.30;6.63;;;;;;;;;;5066694;28;20469;-56
2022/03/24 00:16:31;;;;;;;5.88;5.30;;;;;;;;;;5069120;28;20052;-57
2022/03/24 00:18:57;;;;;;;6.03;5.53;;;;;;;;;;5067354;28;20093;-55
2022/03/24 00:21:24;;;;;;;8.23;5.22;;;;;;;;;;5069032;28;20036;-57
2022/03/24 00:23:49;;;;;;;6.68;6.07;;;;;;;;;;5063994;28;20044;-54
2022/03/24 00:26:14;;;;;;;5.85;5.03;;;;;;;;;;5071365;28;20047;-57
2022/03/24 00:28:40;;;;;;;6.15;5.63;;;;;;;;;;5068707;28;20099;-55
2022/03/24 00:31:05;;;;;;;6.40;5.90;;;;;;;;;;5064851;28;20484;-55
2022/03/24 00:33:32;;;;;;;4.90;4.32;;;;;;;;;;5066518;28;20410;-56
2022/03/24 00:35:57;;;;;;;5.13;4.72;;;;;;;;;;5069559;28;20107;-56
2022/03/24 00:38:23;;;;;;;5.43;4.93;;;;;;;;;;5067876;28;20123;-55
2022/03/24 00:40:48;;;;;;;5.13;4.63;;;;;;;;;;5068529;28;20520;-55
2022/03/24 00:43:14;;;;;;;5.45;5.00;;;;;;;;;;5070228;28;20327;-55
2022/03/24 00:45:42;;;;;;;5.90;5.22;;;;;;;;;;5065063;28;20043;-54
2022/03/24 00:48:08;;;;;;;5.57;4.85;;;;;;;;;;5070362;28;20123;-55
2022/03/24 00:50:35;;;;;;;5.57;4.90;;;;;;;;;;5068857;28;20378;-55
2022/03/24 00:53:01;;;;;;;5.70;5.20;;;;;;;;;;5067717;28;20047;-56
2022/03/24 00:55:26;;;;;;;5.85;5.35;;;;;;;;;;5067974;28;20036;-54
2022/03/24 00:57:55;;;;;;;5.50;5.00;;;;;;;;;;5074162;28;20159;-55
2022/03/24 01:00:25;;;;;;;6.22;5.43;;;;;;;;;;5063527;28;20040;-55
2022/03/24 01:02:53;;;;;;;5.65;5.10;;;;;;;;;;5062034;28;20531;-56
2022/03/24 01:05:20;;;;;;;5.88;5.35;;;;;;;;;;5058604;28;20060;-55
2022/03/24 01:07:46;;;;;;;14.10;6.13;;;;;;;;;;5062873;28;20390;-54
2022/03/24 01:10:14;;;;;;;5.03;4.53;;;;;;;;;;5064825;28;20025;-52
2022/03/24 01:12:40;;;;;;;7.25;6.53;;;;;;;;;;5066378;28;20093;-56
2022/03/24 01:15:10;;;;;;;7.25;5.63;;;;;;;;;;5066324;28;20036;-56
2022/03/24 01:17:36;;;;;;;5.28;4.88;;;;;;;;;;5066413;28;20081;-56
2022/03/24 01:20:03;;;;;;;5.45;5.05;;;;;;;;;;5065926;28;20040;-54
2022/03/24 01:22:29;;;;;;;4.63;4.22;;;;;;;;;;5064380;28;20040;-57
2022/03/24 01:24:56;;;;;;;6.55;5.97;;;;;;;;;;5069862;28;20054;-55
2022/03/24 01:27:25;;;;;;;6.80;6.20;;;;;;;;;;5069609;28;20111;-56
2022/03/24 01:29:57;;;;;;;5.60;5.07;;;;;;;;;;5069896;28;20094;-54
2022/03/24 01:32:24;;;;;;;4.38;3.97;;;;;;;;;;5056447;28;20128;-55
2022/03/24 01:34:50;;;;;;;5.47;4.95;;;;;;;;;;5067185;28;20039;-56
2022/03/24 01:37:16;;;;;;;4.97;4.57;;;;;;;;;;5062859;28;20042;-55
2022/03/24 01:39:42;;;;;;;5.80;5.20;;;;;;;;;;5068315;28;20027;-58
2022/03/24 01:42:08;;;;;;;11.40;4.53;;;;;;;;;;5065249;28;20029;-57
2022/03/24 01:44:34;;;;;;;4.57;4.18;;;;;;;;;;5065385;28;20404;-55
2022/03/24 01:47:01;;;;;;;5.53;4.72;;;;;;;;;;5064235;28;20036;-56
2022/03/24 01:49:30;;;;;;;5.85;5.35;;;;;;;;;;5065936;28;20028;-55
2022/03/24 01:51:56;;;;;;;11.68;5.03;;;;;;;;;;5066044;28;20060;-54
2022/03/24 01:54:23;;;;;;;5.43;4.93;;;;;;;;;;5066622;28;20099;-56
2022/03/24 01:56:49;;;;;;;6.80;6.20;;;;;;;;;;5063927;28;20032;-57
2022/03/24 01:59:16;;;;;;;5.65;5.15;;;;;;;;;;5067926;28;20029;-55
2022/03/24 02:01:43;;;;;;;6.57;5.63;;;;;;;;;;5067237;28;20032;-57
2022/03/24 02:04:08;;;;;;;6.70;6.07;;;;;;;;;;5068480;28;20634;-53
2022/03/24 02:06:35;;;;;;;5.53;5.00;;;;;;;;;;5068200;28;20209;-62
2022/03/24 02:09:00;;;;;;;6.03;5.43;;;;;;;;;;5067151;28;20117;-61
2022/03/24 02:11:27;;;;;;;6.30;5.72;;;;;;;;;;5069572;28;20027;-60
2022/03/24 02:13:53;;;;;;;6.68;6.07;;;;;;;;;;5063771;28;20047;-61
2022/03/24 02:16:18;;;;;;;6.03;5.43;;;;;;;;;;5063473;28;20037;-61
2022/03/24 02:18:45;;;;;;;6.75;5.63;;;;;;;;;;5063887;28;20855;-61
2022/03/24 02:21:14;;;;;;;5.47;4.95;;;;;;;;;;5067829;28;20719;-61
2022/03/24 02:23:41;;;;;;;5.43;4.93;;;;;;;;;;5064607;28;20038;-61
2022/03/24 02:26:07;;;;;;;6.00;5.50;;;;;;;;;;5063664;28;20056;-61
2022/03/24 02:28:33;;;;;;;6.47;5.85;;;;;;;;;;5065022;28;20458;-61
2022/03/24 02:30:58;;;;;;;8.25;6.95;;;;;;;;;;5065213;28;20040;-61
2022/03/24 02:33:24;;;;;;;6.55;5.93;;;;;;;;;;5069720;28;20516;-61
2022/03/24 02:35:52;;;;;;;8.93;5.10;;;;;;;;;;5065515;28;20041;-61
2022/03/24 02:38:19;;;;;;;5.05;4.55;;;;;;;;;;5070928;28;20453;-61
2022/03/24 02:40:47;;;;;;;5.75;5.25;;;;;;;;;;5065880;28;20063;-60
2022/03/24 02:43:12;;;;;;;10.32;5.22;;;;;;;;;;5066030;28;20039;-60
2022/03/24 02:45:37;;;;;;;5.28;4.82;;;;;;;;;;5066888;28;20032;-61
2022/03/24 02:48:04;;;;;;;5.53;5.03;;;;;;;;;;5066311;28;20039;-60
2022/03/24 02:50:30;;;;;;;4.90;4.50;;;;;;;;;;5066922;28;20306;-60
2022/03/24 02:52:55;;;;;;;6.55;5.70;;;;;;;;;;5065744;28;20032;-61
2022/03/24 02:55:20;;;;;;;5.03;4.63;;;;;;;;;;5067902;28;20032;-60
2022/03/24 02:57:46;;;;;;;7.30;5.40;;;;;;;;;;5066193;28;20734;-60
2022/03/24 03:00:12;;;;;;;6.32;5.30;;;;;;;;;;5064065;28;20524;-61
2022/03/24 03:02:37;;;;;;;5.97;5.20;;;;;;;;;;5065729;28;20579;-61
2022/03/24 03:05:03;;;;;;;9.85;6.45;;;;;;;;;;5066905;28;20083;-60
2022/03/24 03:07:28;;;;;;;5.05;4.65;;;;;;;;;;5068111;28;20707;-61
2022/03/24 03:09:54;;;;;;;5.70;5.28;;;;;;;;;;5065446;28;20669;-61
2022/03/24 03:12:19;;;;;;;6.93;5.93;;;;;;;;;;5066063;28;20032;-59
2022/03/24 03:14:49;;;;;;;6.55;5.57;;;;;;;;;;5067362;28;20059;-61
2022/03/24 03:17:17;;;;;;;6.60;6.00;;;;;;;;;;5053131;28;20412;-61
2022/03/24 03:19:45;;;;;;;6.40;5.82;;;;;;;;;;5069398;28;20931;-60
2022/03/24 03:22:12;;;;;;;5.15;4.65;;;;;;;;;;5067115;28;20033;-60
2022/03/24 03:24:39;;;;;;;5.72;5.22;;;;;;;;;;5063882;28;20413;-61
2022/03/24 03:27:05;;;;;;;6.47;5.88;;;;;;;;;;5063306;28;20190;-61
2022/03/24 03:29:31;;;;;;;6.45;5.95;;;;;;;;;;5063243;28;20170;-61
2022/03/24 03:31:56;;;;;;;6.55;6.05;;;;;;;;;;5062799;28;20086;-61
2022/03/24 03:34:25;;;;;;;6.05;5.63;;;;;;;;;;5065368;28;20051;-61
2022/03/24 03:36:54;;;;;;;5.40;5.00;;;;;;;;;;5065345;28;20078;-60
2022/03/24 03:39:20;;;;;;;5.28;4.78;;;;;;;;;;5065277;28;20039;-61
2022/03/24 03:41:45;;;;;;;5.95;5.35;;;;;;;;;;5064703;28;20036;-61
2022/03/24 03:44:11;;;;;;;5.15;4.75;;;;;;;;;;5065791;28;20035;-61
2022/03/24 03:46:36;;;;;;;5.75;5.25;;;;;;;;;;5063518;28;20420;-54
2022/03/24 03:49:04;;;;;;;6.15;5.57;;;;;;;;;;5066620;28;20043;-57
2022/03/24 03:51:31;;;;;;;4.45;4.05;;;;;;;;;;5065110;28;20041;-56
2022/03/24 03:53:57;;;;;;;6.15;5.55;;;;;;;;;;5066638;28;20037;-55
2022/03/24 03:56:23;;;;;;;5.70;4.38;;;;;;;;;;5064855;28;20043;-57
2022/03/24 03:58:49;;;;;;;7.05;6.38;;;;;;;;;;5067461;28;20040;-56
2022/03/24 04:01:14;;;;;;;6.43;5.05;;;;;;;;;;5065621;28;20059;-57
2022/03/24 04:03:40;;;;;;;6.35;5.75;;;;;;;;;;5065621;28;20036;-56
2022/03/24 04:06:11;;;;;;;8.55;5.68;;;;;;;;;;5063277;28;20037;-57
2022/03/24 04:08:38;;;;;;;5.22;4.82;;;;;;;;;;5065917;28;20024;-53
2022/03/24 04:11:07;;;;;;;5.55;5.05;;;;;;;;;;5065311;28;20166;-55
2022/03/24 04:13:36;;;;;;;5.28;4.88;;;;;;;;;;5063949;28;20517;-56
2022/03/24 04:16:03;;;;;;;5.38;4.93;;;;;;;;;;5070151;28;20044;-56
2022/03/24 04:18:28;;;;;;;5.35;4.95;;;;;;;;;;5071002;28;20040;-53
2022/03/24 04:20:54;;;;;;;5.75;5.25;;;;;;;;;;5071154;28;20450;-57
2022/03/24 04:23:20;;;;;;;5.97;5.38;;;;;;;;;;5070807;28;20028;-52
2022/03/24 04:25:46;;;;;;;6.60;6.03;;;;;;;;;;5070141;28;20040;-56
2022/03/24 04:28:12;;;;;;;6.28;5.32;;;;;;;;;;5067721;28;20344;-56
2022/03/24 04:30:37;;;;;;;7.07;5.00;;;;;;;;;;5068971;28;20196;-56
2022/03/24 04:33:04;;;;;;;6.72;6.10;;;;;;;;;;5068879;28;20111;-57
2022/03/24 04:35:31;;;;;;;6.57;6.03;;;;;;;;;;5067725;28;20078;-55
2022/03/24 04:37:57;;;;;;;5.70;5.20;;;;;;;;;;5067115;28;20036;-55
2022/03/24 04:40:24;;;;;;;7.03;5.38;;;;;;;;;;5069901;28;20043;-55
2022/03/24 04:42:52;;;;;;;7.55;6.75;;;;;;;;;;5068001;28;20041;-58
2022/03/24 04:45:18;;;;;;;6.47;5.82;;;;;;;;;;5066504;28;20093;-58
2022/03/24 04:47:45;;;;;;;5.78;5.07;;;;;;;;;;5066420;28;20155;-55
2022/03/24 04:50:11;;;;;;;5.07;4.68;;;;;;;;;;5069176;28;20028;-56
2022/03/24 04:52:37;;;;;;;5.32;4.82;;;;;;;;;;5068757;28;20615;-55
2022/03/24 04:55:03;;;;;;;5.03;4.35;;;;;;;;;;5068416;28;20040;-55
2022/03/24 04:57:29;;;;;;;5.35;4.85;;;;;;;;;;5068448;28;20031;-56
2022/03/24 04:59:56;;;;;;;6.85;6.25;;;;;;;;;;5055398;28;20028;-55
2022/03/24 05:02:22;;;;;;;5.72;5.22;;;;;;;;;;5069441;28;20075;-54
2022/03/24 05:04:48;;;;;;;5.57;4.97;;;;;;;;;;5067839;28;20048;-56
2022/03/24 05:07:13;;;;;;;6.32;5.82;;;;;;;;;;5067283;28;20040;-54
2022/03/24 05:09:39;;;;;;;6.00;5.40;;;;;;;;;;5067863;28;20064;-55
2022/03/24 05:12:05;;;;;;;5.63;5.22;;;;;;;;;;5066055;28;20037;-53
2022/03/24 05:14:31;;;;;;;5.75;5.20;;;;;;;;;;5067500;28;20039;-54
2022/03/24 05:16:58;;;;;;;5.53;5.03;;;;;;;;;;5068038;28;20081;-55
2022/03/24 05:19:23;;;;;;;5.60;5.10;;;;;;;;;;5065927;28;20023;-55
2022/03/24 05:21:48;;;;;;;6.22;5.72;;;;;;;;;;5051793;28;20113;-55
2022/03/24 05:24:14;;;;;;;5.35;4.85;;;;;;;;;;5068400;28;20472;-56
2022/03/24 05:26:40;;;;;;;5.75;5.28;;;;;;;;;;5067107;28;20043;-57
2022/03/24 05:29:06;;;;;;;6.65;5.60;;;;;;;;;;5068123;28;20123;-56
2022/03/24 05:31:31;;;;;;;6.25;5.65;;;;;;;;;;5063548;28;20163;-56
2022/03/24 05:33:56;;;;;;;4.95;4.43;;;;;;;;;;5060504;28;20032;-54
2022/03/24 05:36:22;;;;;;;6.80;6.10;;;;;;;;;;5065134;28;20518;-55
2022/03/24 05:38:47;;;;;;;5.68;4.82;;;;;;;;;;5066252;28;20093;-57
2022/03/24 05:41:13;;;;;;;4.85;4.45;;;;;;;;;;5066824;28;20035;-56
2022/03/24 05:43:39;;;;;;;5.32;4.65;;;;;;;;;;5061625;28;20119;-56
2022/03/24 05:46:05;;;;;;;5.93;5.35;;;;;;;;;;5062868;28;20749;-55
2022/03/24 05:48:32;;;;;;;6.07;5.47;;;;;;;;;;5066412;28;20040;-57
2022/03/24 05:50:57;;;;;;;5.35;4.85;;;;;;;;;;5064913;28;20575;-56
2022/03/24 05:53:23;;;;;;;5.53;4.40;;;;;;;;;;5061838;28;20143;-57
2022/03/24 05:55:48;;;;;;;5.20;4.75;;;;;;;;;;5063980;28;20037;-55
2022/03/24 05:58:13;;;;;;;5.35;4.88;;;;;;;;;;5065924;28;20032;-56
2022/03/24 06:00:41;;;;;;;5.82;5.30;;;;;;;;;;5068120;28;20382;-55
2022/03/24 06:03:07;;;;;;;6.40;5.85;;;;;;;;;;5065984;28;22221;-54
2022/03/24 06:05:33;;;;;;;5.82;5.15;;;;;;;;;;5069738;28;20028;-53
2022/03/24 06:08:00;;;;;;;6.30;5.80;;;;;;;;;;5068754;28;20248;-56
2022/03/24 06:10:30;;;;;;;5.65;5.15;;;;;;;;;;5064288;28;20028;-55
2022/03/24 06:12:58;;;;;;;5.70;5.20;;;;;;;;;;5063052;28;20043;-57
2022/03/24 06:15:23;;;;;;;6.70;5.72;;;;;;;;;;5066759;28;20135;-52
2022/03/24 06:17:49;;;;;;;6.40;5.03;;;;;;;;;;5070653;28;20140;-56
2022/03/24 06:20:14;;;;;;;5.50;5.00;;;;;;;;;;5068869;28;20511;-55
2022/03/24 06:22:49;;;;;;;5.32;4.82;;;;;;;;;;5065707;28;20024;-55
2022/03/24 06:25:15;;;;;;;6.88;4.75;;;;;;;;;;5071224;28;20029;-53
2022/03/24 06:27:41;;;;;;;6.93;6.20;;;;;;;;;;5069501;28;20032;-54
2022/03/24 06:30:07;;;;;;;5.40;5.00;;;;;;;;;;5068198;28;20455;-52
2022/03/24 06:32:32;;;;;;;5.45;4.95;;;;;;;;;;5070998;28;20095;-54
2022/03/24 06:34:58;;;;;;;6.47;5.82;;;;;;;;;;5075674;28;20040;-57
2022/03/24 06:37:24;;;;;;;5.15;4.75;;;;;;;;;;5068805;28;20072;-56
2022/03/24 06:39:49;;;;;;;7.20;6.47;;;;;;;;;;5068031;28;20043;-53
2022/03/24 06:42:15;;;;;;;6.43;5.72;;;;;;;;;;5069239;28;20550;-54
2022/03/24 06:44:41;;;;;;;5.20;4.80;;;;;;;;;;5072157;28;20411;-57
2022/03/24 06:47:06;;;;;;;5.30;4.82;;;;;;;;;;5069846;28;20469;-55
2022/03/24 06:49:32;;;;;;;6.65;6.03;;;;;;;;;;5071536;28;20032;-58
2022/03/24 06:51:57;;;;;;;4.85;4.45;;;;;;;;;;5066187;28;20055;-59
2022/03/24 06:54:23;;;;;;;5.53;4.95;;;;;;;;;;5068095;28;20150;-58
2022/03/24 06:56:49;;;;;;;5.75;5.25;;;;;;;;;;5073074;28;20123;-59
2022/03/24 06:59:15;;;;;;;6.88;5.10;;;;;;;;;;5073702;28;20050;-58
2022/03/24 07:01:42;;;;;;;6.50;5.85;;;;;;;;;;5069463;28;20090;-58
2022/03/24 07:04:07;;;;;;;5.43;4.93;;;;;;;;;;5068576;28;20437;-59
2022/03/24 07:06:32;;;;;;;7.57;6.53;;;;;;;;;;5068999;28;20028;-58
2022/03/24 07:08:58;;;;;;;6.30;5.65;;;;;;;;;;5071154;28;20181;-58
2022/03/24 07:11:23;;;;;;;7.90;6.82;;;;;;;;;;5068089;28;20029;-59
2022/03/24 07:13:49;;;;;;;15.13;6.32;;;;;;;;;;5069826;28;20178;-59
2022/03/24 07:16:15;;;;;;;6.55;5.95;;;;;;;;;;5065046;28;20077;-58
2022/03/24 07:18:40;;;;;;;7.65;6.22;;;;;;;;;;5073270;28;20107;-59
2022/03/24 07:21:06;;;;;;;17.20;6.70;;;;;;;;;;5072357;28;20047;-59
2022/03/24 07:23:32;;;;;;;9.18;6.03;;;;;;;;;;5071275;28;20047;-58
2022/03/24 07:25:58;;;;;;;5.63;4.68;;;;;;;;;;5070411;28;20385;-58
2022/03/24 07:28:23;;;;;;;8.57;6.53;;;;;;;;;;5073149;28;20028;-59
2022/03/24 07:30:50;;;;;;;6.20;5.70;;;;;;;;;;5069602;28;20060;-58
2022/03/24 07:33:20;;;;;;;7.15;6.45;;;;;;;;;;5070642;28;20037;-57
2022/03/24 07:35:46;;;;;;;6.43;5.88;;;;;;;;;;5072704;28;20094;-58
2022/03/24 07:38:12;;;;;;;5.47;4.78;;;;;;;;;;5069936;28;20028;-57
2022/03/24 07:40:37;;;;;;;7.72;5.20;;;;;;;;;;5071613;28;20036;-57
2022/03/24 07:43:04;;;;;;;20.58;6.45;;;;;;;;;;5073325;28;20051;-57
2022/03/24 07:45:35;;;;;;;5.93;5.43;;;;;;;;;;5067908;28;20466;-57
2022/03/24 07:48:09;;;;;;;7.53;6.90;;;;;;;;;;5077271;28;20032;-58
2022/03/24 07:50:36;;;;;;;8.75;6.65;;;;;;;;;;5078780;28;20544;-57
2022/03/24 07:53:19;;;;;;;7.65;6.95;;;;;;;;;;5073227;28;20105;-58
2022/03/24 07:55:46;;;;;;;7.90;7.20;;;;;;;;;;5076369;28;20695;-58
2022/03/24 07:58:13;;;;;;;7.65;6.95;;;;;;;;;;5076419;28;20028;-57
2022/03/24 08:00:42;;;;;;;7.70;7.03;;;;;;;;;;5075170;28;20211;-58
2022/03/24 08:03:13;;;;;;;8.27;6.00;;;;;;;;;;5075209;28;20020;-58
2022/03/24 08:05:40;;;;;;;6.65;6.07;;;;;;;;;;5076233;28;20029;-58
2022/03/24 08:08:06;;;;;;;6.75;6.15;;;;;;;;;;5069712;28;20041;-58
2022/03/24 08:10:32;;;;;;;7.75;6.93;;;;;;;;;;5074056;28;20023;-58
2022/03/24 08:12:57;;;;;;;6.70;6.18;;;;;;;;;;5075177;28;20035;-58
2022/03/24 08:15:23;;;;;;;8.40;7.45;;;;;;;;;;5074667;28;20036;-58
2022/03/24 08:17:48;;;;;;;7.63;6.82;;;;;;;;;;5074790;28;20373;-57
2022/03/24 08:20:15;;;;;;;11.05;6.55;;;;;;;;;;5076388;28;20484;-58
2022/03/24 08:22:41;;;;;;;10.07;8.48;;;;;;;;;;5071939;28;20028;-58
2022/03/24 08:25:09;;;;;;;6.45;5.95;;;;;;;;;;5073510;28;20043;-58
2022/03/24 08:27:35;;;;;;;8.48;6.88;;;;;;;;;;5071451;28;20036;-57
2022/03/24 08:30:01;;;;;;;6.35;5.78;;;;;;;;;;5076894;28;20040;-57
2022/03/24 08:32:26;;;;;;;7.13;6.57;;;;;;;;;;5073694;28;20040;-57
2022/03/24 08:34:51;;;;;;;7.10;6.50;;;;;;;;;;5072519;28;20024;-57
2022/03/24 08:37:17;;;;;;;7.38;6.70;;;;;;;;;;5074177;28;20035;-57
2022/03/24 08:39:42;;;;;;;7.13;6.53;;;;;;;;;;5072539;28;20044;-57
2022/03/24 08:42:08;;;;;;;12.30;8.32;;;;;;;;;;5072137;28;20063;-56
2022/03/24 08:44:33;;;;;;;9.10;7.30;;;;;;;;;;5072543;28;20066;-58
2022/03/24 08:46:58;;;;;;;7.43;5.43;;;;;;;;;;5070686;28;20028;-58
2022/03/24 08:49:24;;;;;;;8.43;7.68;;;;;;;;;;5064272;28;20032;-57
2022/03/24 08:51:49;;;;;;;9.05;8.10;;;;;;;;;;5069556;28;20036;-57
2022/03/24 08:54:15;;;;;;;8.23;7.53;;;;;;;;;;5071351;28;20678;-58
2022/03/24 08:56:40;;;;;;;8.45;7.50;;;;;;;;;;5068256;28;20100;-58
2022/03/24 08:59:06;;;;;;;8.30;7.53;;;;;;;;;;5068074;28;20095;-57
2022/03/24 09:01:31;;;;;;;10.73;8.32;;;;;;;;;;5071040;28;20036;-58
2022/03/24 09:03:57;;;;;;;9.05;8.05;;;;;;;;;;5068223;28;20056;-58
2022/03/24 09:06:22;;;;;;;7.85;7.25;;;;;;;;;;5070657;28;20088;-58
2022/03/24 09:08:49;;;;;;;9.73;8.02;;;;;;;;;;5052420;28;20596;-55
2022/03/24 09:11:15;;;;;;;8.13;7.47;;;;;;;;;;5073957;28;20069;-55
2022/03/24 09:13:41;;;;;;;9.85;8.93;;;;;;;;;;5068671;28;20036;-55
2022/03/24 09:16:07;;;;;;;8.88;8.13;;;;;;;;;;5070714;28;20115;-55
2022/03/24 09:18:34;;;;;;;9.13;8.27;;;;;;;;;;5072873;28;20037;-55
2022/03/24 09:20:59;;;;;;;7.18;6.57;;;;;;;;;;5071657;28;20031;-56
2022/03/24 09:23:26;;;;;;;9.13;7.25;;;;;;;;;;5072010;28;20429;-57
2022/03/24 09:25:53;;;;;;;9.93;7.82;;;;;;;;;;5067481;28;20043;-55
2022/03/24 09:28:19;;;;;;;7.85;7.22;;;;;;;;;;5068224;28;20497;-56
2022/03/24 09:30:45;;;;;;;8.88;7.90;;;;;;;;;;5069320;28;20032;-57
2022/03/24 09:33:11;;;;;;;9.57;8.63;;;;;;;;;;5068387;28;20039;-54
2022/03/24 09:35:36;;;;;;;8.25;7.55;;;;;;;;;;5070185;28;20633;-55
2022/03/24 09:38:02;;;;;;;11.27;7.60;;;;;;;;;;5068536;28;20086;-57
2022/03/24 09:40:27;;;;;;;9.60;8.73;;;;;;;;;;5070806;28;20036;-58
2022/03/24 09:42:55;;;;;;;9.52;8.63;;;;;;;;;;5069616;28;20044;-56
2022/03/24 09:45:21;;;;;;;10.13;9.18;;;;;;;;;;5070780;28;20032;-55
2022/03/24 09:47:46;;;;;;;9.80;8.80;;;;;;;;;;5069317;28;20029;-56
2022/03/24 09:50:12;;;;;;;8.57;7.68;;;;;;;;;;5067207;28;20163;-54
2022/03/24 09:52:38;;;;;;;8.77;7.78;;;;;;;;;;5069816;28;20253;-58
2022/03/24 09:55:04;;;;;;;11.25;10.20;;;;;;;;;;5068045;28;20029;-55
2022/03/24 09:57:30;;;;;;;10.20;8.65;;;;;;;;;;5069040;28;20894;-57
2022/03/24 09:59:55;;;;;;;9.05;8.25;;;;;;;;;;5070805;28;20050;-55
2022/03/24 10:02:21;;;;;;;9.65;8.23;;;;;;;;;;5070334;28;20052;-58
2022/03/24 10:04:49;;;;;;;10.68;9.57;;;;;;;;;;5070963;28;20111;-58
2022/03/24 10:07:16;;;;;;;10.50;9.50;;;;;;;;;;5069700;28;20066;-56
2022/03/24 10:09:47;;;;;;;10.25;9.18;;;;;;;;;;5069147;28;20025;-62
2022/03/24 10:12:26;;;;;;;10.73;9.70;;;;;;;;;;5069995;28;20070;-55
2022/03/24 10:15:02;;;;;;;11.10;10.10;;;;;;;;;;5067219;28;20765;-56
2022/03/24 10:17:28;;;;;;;10.27;9.45;;;;;;;;;;5067966;28;20685;-57
2022/03/24 10:19:59;;;;;;;11.30;10.30;;;;;;;;;;5067656;28;20040;-55
2022/03/24 10:22:25;;;;;;;;;;;;;;;;;;5067416;28;20039;-55
2022/03/24 10:24:51;;;;;;;10.20;9.20;;;;;;;;;;5071321;28;19913;-56
2022/03/24 10:27:24;;;;;;;10.63;9.60;;;;;;;;;;5070173;28;20032;-57
2022/03/24 10:29:55;;;;;;;12.48;9.32;;;;;;;;;;5071244;28;20480;-57
2022/03/24 10:32:21;;;;;;;;;;;;;;;;;;5067978;28;20040;-56
2022/03/24 10:34:48;;;;;;;10.98;9.90;;;;;;;;;;5070073;28;19923;-56
2022/03/24 10:37:17;;;;;;;11.43;10.35;;;;;;;;;;5073887;28;20559;-58
2022/03/24 10:39:58;;;;;;;13.88;12.48;;;;;;;;;;5066854;28;20021;-55
2022/03/24 10:42:28;;;;;;;12.32;11.18;;;;;;;;;;5071498;28;20040;-58
2022/03/24 10:45:11;;;;;;;11.80;10.65;;;;;;;;;;5067970;28;20028;-56
2022/03/24 10:47:45;;;;;;;11.55;10.45;;;;;;;;;;5067441;28;20033;-56
2022/03/24 10:50:22;;;;;;;12.77;11.45;;;;;;;;;;5065303;28;20511;-56
2022/03/24 10:52:51;;;;;;;14.25;13.07;;;;;;;;;;5069980;28;20557;-54
2022/03/24 10:55:26;;;;;;;14.90;13.80;;;;;;;;;;5065481;28;20036;-57
2022/03/24 10:57:51;;;;;;;13.98;12.90;;;;;;;;;;5067520;28;20055;-57
2022/03/24 11:00:17;;;;;;;14.98;13.48;;;;;;;;;;5065346;28;20032;-57
2022/03/24 11:02:44;;;;;;;14.05;12.90;;;;;;;;;;5067632;28;20033;-57
2022/03/24 11:05:12;;;;;;;12.65;11.43;;;;;;;;;;5066670;28;20032;-57
2022/03/24 11:07:38;;;;;;;11.23;10.27;;;;;;;;;;5068435;28;20086;-56
2022/03/24 11:10:11;;;;;;;12.63;11.68;;;;;;;;;;5071091;28;20040;-63
2022/03/24 11:12:38;;;;;;;12.05;10.93;;;;;;;;;;5070205;28;20063;-53
2022/03/24 11:15:07;;;;;;;12.85;11.75;;;;;;;;;;5063652;28;20258;-54
2022/03/24 11:17:39;;;;;;;13.95;12.63;;;;;;;;;;5069319;28;20020;-55
2022/03/24 11:20:15;;;;;;;12.90;11.65;;;;;;;;;;5062667;28;20036;-55
2022/03/24 11:22:46;;;;;;;12.82;11.82;;;;;;;;;;5060891;28;20037;-52
2022/03/24 11:25:12;;;;;;;11.40;10.50;;;;;;;;;;5076885;28;20032;-56
2022/03/24 11:27:39;;;;;;;12.25;11.23;;;;;;;;;;5075641;28;20039;-56
2022/03/24 11:30:07;;;;;;;13.02;11.88;;;;;;;;;;5073084;28;20110;-53
2022/03/24 11:32:35;;;;;;;11.25;10.35;;;;;;;;;;5072797;28;20032;-54
2022/03/24 11:35:04;;;;;;;13.57;12.48;;;;;;;;;;5076272;28;20432;-57
2022/03/24 11:37:30;;;;;;;15.75;14.45;;;;;;;;;;5075061;28;20443;-57
2022/03/24 11:40:13;;;;;;;12.68;11.75;;;;;;;;;;5072245;28;20136;-57
2022/03/24 11:43:16;;;;;;;10.88;10.05;;;;;;;;;;5073224;28;20527;-53
2022/03/24 11:45:44;;;;;;;15.23;13.05;;;;;;;;;;5075638;28;20033;-57
2022/03/24 11:48:12;;;;;;;14.02;12.77;;;;;;;;;;5075108;28;20033;-57
2022/03/24 11:50:52;;;;;;;15.20;13.82;;;;;;;;;;5078250;28;20036;-54
2022/03/24 11:53:29;;;;;;;12.03;10.93;;;;;;;;;;5075391;28;20106;-55
2022/03/24 11:56:03;;;;;;;14.25;13.05;;;;;;;;;;5075160;28;20123;-54
2022/03/24 11:58:36;;;;;;;13.70;12.60;;;;;;;;;;5071060;28;20038;-54
2022/03/24 12:01:20;;;;;;;15.60;14.35;;;;;;;;;;5069862;28;20059;-51
2022/03/24 12:03:48;;;;;;;16.58;15.15;;;;;;;;;;5075056;28;20229;-54
2022/03/24 12:06:16;;;;;;;13.13;12.05;;;;;;;;;;5073153;28;20036;-54
2022/03/24 12:09:03;;;;;;;13.40;12.20;;;;;;;;;;5076182;28;20065;-56
2022/03/24 12:11:32;;;;;;;16.83;15.32;;;;;;;;;;5072489;28;20067;-54
2022/03/24 12:13:58;;;;;;;16.42;14.98;;;;;;;;;;5074014;28;20036;-55
2022/03/24 12:16:26;;;;;;;17.55;16.30;;;;;;;;;;5072886;28;20096;-55
2022/03/24 12:18:52;;;;;;;18.88;16.98;;;;;;;;;;5074527;28;20039;-55
2022/03/24 12:21:20;;;;;;;18.50;17.00;;;;;;;;;;5073696;28;20111;-53
2022/03/24 12:24:06;;;;;;;15.18;14.02;;;;;;;;;;5075022;28;20032;-53
2022/03/24 12:26:51;;;;;;;17.30;15.82;;;;;;;;;;5074207;28;20174;-54
2022/03/24 12:29:20;;;;;;;18.20;16.75;;;;;;;;;;5075393;28;20457;-54
2022/03/24 12:32:12;;;;;;;18.33;16.98;;;;;;;;;;5075573;28;20040;-54
2022/03/24 12:34:47;;;;;;;18.38;17.15;;;;;;;;;;5073802;28;20105;-53
2022/03/24 12:37:31;;;;;;;16.40;15.35;;;;;;;;;;5075501;28;20040;-53
2022/03/24 12:40:05;;;;;;;19.77;18.45;;;;;;;;;;5071375;28;20293;-56
2022/03/24 12:42:46;;;;;;;22.02;20.27;;;;;;;;;;5075256;28;20078;-57
2022/03/24 12:45:26;;;;;;;15.43;14.43;;;;;;;;;;5073216;28;20035;-57
2022/03/24 12:47:56;;;;;;;18.90;17.55;;;;;;;;;;5076606;28;20370;-53
2022/03/24 12:50:21;;;;;;;18.23;16.83;;;;;;;;;;5075062;28;20016;-57
2022/03/24 12:52:53;;;;;;;19.65;17.30;;;;;;;;;;5078391;28;20097;-57
2022/03/24 12:55:28;;;;;;;16.95;15.70;;;;;;;;;;5077737;28;20110;-56
2022/03/24 12:57:55;;;;;;;18.98;17.67;;;;;;;;;;5074891;28;20373;-57
2022/03/24 13:00:24;;;;;;;22.02;20.10;;;;;;;;;;5073577;28;20078;-54
2022/03/24 13:02:49;;;;;;;21.70;19.98;;;;;;;;;;5059017;28;20109;-57
2022/03/24 13:05:22;;;;;;;21.83;19.75;;;;;;;;;;5075762;28;20024;-56
2022/03/24 13:07:49;;;;;;;18.17;16.77;;;;;;;;;;5073885;28;20035;-55
2022/03/24 13:10:15;;;;;;;18.30;17.02;;;;;;;;;;5068604;28;20103;-57
2022/03/24 13:12:43;;;;;;;18.75;17.45;;;;;;;;;;5071693;28;20039;-55
2022/03/24 13:15:18;;;;;;;21.00;18.48;;;;;;;;;;5073169;28;20481;-54
2022/03/24 13:17:48;;;;;;;19.63;18.25;;;;;;;;;;5077401;28;20033;-57
2022/03/24 13:20:14;;;;;;;17.70;16.38;;;;;;;;;;5070071;28;20033;-55
2022/03/24 13:22:40;;;;;;;20.23;18.83;;;;;;;;;;5073928;28;20028;-55
2022/03/24 13:25:10;;;;;;;20.33;18.90;;;;;;;;;;5072331;28;20047;-55
2022/03/24 13:27:39;;;;;;;21.15;19.13;;;;;;;;;;5072413;28;20094;-56
2022/03/24 13:30:10;;;;;;;20.20;18.38;;;;;;;;;;5069964;28;20043;-56
2022/03/24 13:32:37;;;;;;;20.85;19.25;;;;;;;;;;5072958;28;20551;-56
2022/03/24 13:35:06;;;;;;;21.33;19.83;;;;;;;;;;5068945;28;20070;-56
2022/03/24 13:37:37;;;;;;;22.23;20.63;;;;;;;;;;5074518;28;20361;-56
2022/03/24 13:40:07;;;;;;;23.73;22.02;;;;;;;;;;5072735;28;20052;-54
2022/03/24 13:42:34;;;;;;;27.27;24.85;;;;;;;;;;5072672;28;20028;-54
2022/03/24 13:45:00;;;;;;;21.80;20.30;;;;;;;;;;5073786;28;20035;-55
2022/03/24 13:47:27;;;;;;;26.48;24.27;;;;;;;;;;5073703;28;20119;-56
2022/03/24 13:50:02;;;;;;;23.85;22.33;;;;;;;;;;5073004;28;20044;-55
2022/03/24 13:52:42;;;;;;;22.92;21.40;;;;;;;;;;5069557;28;20036;-56
2022/03/24 13:55:18;;;;;;;22.92;21.30;;;;;;;;;;5074625;28;20132;-54
2022/03/24 13:57:50;;;;;;;23.02;21.42;;;;;;;;;;5073234;28;20028;-56
2022/03/24 14:00:40;;;;;;;22.83;21.40;;;;;;;;;;5074079;28;20036;-55
2022/03/24 14:03:19;;;;;;;21.27;19.88;;;;;;;;;;5074814;28;20047;-60
2022/03/24 14:06:00;;;;;;;23.00;21.45;;;;;;;;;;5072349;28;20027;-56
2022/03/24 14:08:48;;;;;;;21.60;20.00;;;;;;;;;;5074346;28;20040;-56
2022/03/24 14:11:20;;;;;;;21.08;19.58;;;;;;;;;;5072496;28;20058;-58
2022/03/24 14:13:51;;;;;;;19.95;18.42;;;;;;;;;;5069943;28;20039;-57
2022/03/24 14:16:22;;;;;;;18.60;17.30;;;;;;;;;;5073272;28;20032;-58
2022/03/24 14:19:18;;;;;;;22.92;21.33;;;;;;;;;;5069281;28;20032;-57
2022/03/24 14:21:51;;;;;;;22.30;20.77;;;;;;;;;;5069517;28;20050;-56
2022/03/24 14:24:35;;;;;;;26.73;24.92;;;;;;;;;;5055469;28;20032;-56
2022/03/24 14:27:20;;;;;;;21.95;20.52;;;;;;;;;;5069817;28;20373;-57
2022/03/24 14:30:08;;;;;;;24.52;22.83;;;;;;;;;;5070976;28;20032;-56
2022/03/24 14:32:35;;;;;;;26.08;24.23;;;;;;;;;;5071967;28;20447;-55
2022/03/24 14:35:05;;;;;;;21.98;20.55;;;;;;;;;;5068144;28;20032;-58
2022/03/24 14:37:55;;;;;;;22.92;21.40;;;;;;;;;;5075864;28;20641;-57
2022/03/24 14:40:31;;;;;;;23.45;21.67;;;;;;;;;;5073706;28;20036;-54
2022/03/24 14:43:07;;;;;;;24.40;22.65;;;;;;;;;;5071550;28;20426;-58